Latest Coastal Weather Observations for Eucla

IDS60701

Issued at 3:31 am CST Thursday 21 September 2017 (issued every 10 minutes, with the page automatically refreshed every 10 minutes)

About coastal observations | Map of coastal stations | Coastal observations for SA | Marine services | Other Formats
Station Details ID: 011003 Name: EUCLA Lat: -31.68 Lon: 128.90 Height: 93.1 m
Data from the previous 72 hours. | See also: Recent months at Eucla
Date/Time
CST
Temp
°C
Wind Pressure Rain since
9am
mm
Weather Cloud Vis
km
Sea
Height
m
Swell
Dir  Spd
kts
Gust
kts
hPa Trend Height
m
Period
s
Dir
21/03:30am 10.8 CALM 0 0 1012.6 - 0.0 - - - - - - -
21/03:00am 10.9 CALM 0 0 1012.6 - 0.0 - - - - - - -
21/02:30am 11.8 CALM 0 0 1012.9 - 0.0 - - - - - - -
21/02:00am 12.6 CALM 0 0 1013.0 - 0.0 - - - - - - -
21/01:30am 12.8 CALM 0 0 1013.2 - 0.0 - - - - - - -
21/01:00am 12.7 SSW 4 4 1013.2 - 0.0 - - - - - - -
21/12:30am 12.7 S 4 5 1013.1 - 0.0 - - - - - - -
21/12:00am 12.9 SSE 4 5 1012.9 - 0.0 - - - - - - -
 
Date/Time
CST
Temp
°C
Wind Pressure Rain since
9am
mm
Weather Cloud Vis
km
Sea
Height
m
Swell
Dir  Spd
kts
Gust
kts
hPa Trend Height
m
Period
s
Dir
20/11:30pm 12.7 SSE 5 7 1012.7 - 0.0 - - - - - - -
20/11:00pm 13.2 SE 7 9 1012.1 - 0.0 - - - - - - -
20/10:30pm 13.3 SSE 6 8 1012.3 - 0.0 - - - - - - -
20/10:00pm 13.3 SSE 6 7 1012.5 - 0.0 - - - - - - -
20/09:30pm 13.5 SSE 5 6 1012.5 - 0.0 - - - - - - -
20/09:00pm 13.5 S 6 8 1012.5 - 0.0 - - - - - - -
20/08:30pm 14.2 S 6 8 1012.6 - 0.0 - - - - - - -
20/08:00pm 14.8 SSW 7 10 1012.3 - 0.0 - - - - - - -
20/07:30pm 15.3 S 7 10 1012.2 - 0.0 - - - - - - -
20/07:00pm 15.3 S 7 12 1011.8 - 0.0 - - - - - - -
20/06:30pm 15.5 S 9 14 1011.5 - 0.0 - - - - - - -
20/06:00pm 15.7 SSW 10 16 1011.5 - 0.0 - - - - - - -
20/05:30pm 16.5 SSW 10 15 1011.1 - 0.0 - - - - - - -
20/05:00pm 17.6 SSW 11 16 1010.8 - 0.0 - - - - - - -
20/04:30pm 18.3 SSW 10 17 1010.3 - 0.0 Haze Mostly clear 20 - - - -
20/04:00pm 19.5 SSW 11 18 1010.0 - 0.0 - - - - - - -
20/03:30pm 18.4 SW 11 18 1010.0 - 0.0 - - - - - - -
20/03:00pm 20.3 SSW 12 19 1010.2 - 0.0 - - - - - - -
20/02:30pm 20.3 SW 12 20 1010.3 - 0.0 - - - - - - -
20/02:00pm 19.4 SW 14 20 1010.2 - 0.0 - - - - - - -
20/01:30pm 20.9 SW 11 17 1009.5 - 0.0 - - - - - - -
20/01:00pm 24.9 SW 11 18 1009.6 - 0.0 - - - - - - -
20/12:42pm 24.0 SW 11 17 1009.7 - 0.0 - - - - - - -
20/12:30pm 29.0 W 13 20 1009.6 - 0.0 - - - - - - -
20/12:00pm 29.7 W 13 19 1009.6 - 0.0 - - - - - - -
20/11:30am 28.9 WNW 14 20 1009.6 - 0.0 - - - - - - -
20/11:00am 28.2 NW 15 23 1009.6 - 0.0 - - - - - - -
20/10:32am 29.5 NNW 17 29 1009.4 - 0.0 - - - - - - -
20/10:30am 29.1 NNW 17 26 1009.4 - 0.0 Fine Mostly cloudy 40 - - - -
20/10:00am 26.4 NNW 17 26 1009.9 - 0.0 - - - - - - -
20/09:56am 26.0 NNW 16 26 1009.8 - 0.0 - - - - - - -
20/09:30am 25.2 N 17 23 1009.9 - 0.0 - - - - - - -
20/09:05am 23.5 N 15 25 1009.8 - 0.0 - - - - - - -
20/09:00am 23.5 N 16 24 1009.9 - 0.0 - - - - - - -
20/08:30am 21.2 N 15 23 1010.1 - 0.0 - - - - - - -
20/08:00am 19.1 N 16 24 1010.3 - 0.0 - - - - - - -
20/07:30am 18.5 N 15 20 1010.0 - 0.0 - - - - - - -
20/07:00am 17.8 N 15 21 1009.8 - 0.0 - - - - - - -
20/06:30am 18.3 N 16 21 1009.9 - 0.0 - - - - - - -
20/06:00am 18.4 N 16 22 1009.7 - 0.0 - - - - - - -
20/05:30am 18.4 N 15 20 1009.9 - 0.0 - - - - - - -
20/05:00am 18.6 N 14 19 1009.9 - 0.0 - - - - - - -
20/04:30am 18.1 N 14 18 1010.3 - 0.0 - - - - - - -
20/04:00am 18.1 N 14 17 1010.5 - 0.0 - - - - - - -
20/03:30am 18.6 N 14 19 1010.5 - 0.0 - - - - - - -
20/03:00am 18.5 N 14 19 1010.8 - 0.0 - - - - - - -
20/02:30am 18.7 N 15 19 1011.3 - 0.0 - - - - - - -
20/02:00am 19.1 N 15 20 1011.5 - 0.0 - - - - - - -
20/01:30am 19.4 N 15 20 1011.8 - 0.0 - - - - - - -
20/01:00am 19.6 N 16 22 1012.2 - 0.0 - - - - - - -
20/12:30am 19.8 N 17 22 1012.4 - 0.0 - - - - - - -
20/12:00am 19.8 N 15 21 1013.2 - 0.0 - - - - - - -
 
Date/Time
CST
Temp
°C
Wind Pressure Rain since
9am
mm
Weather Cloud Vis
km
Sea
Height
m
Swell
Dir  Spd
kts
Gust
kts
hPa Trend Height
m
Period
s
Dir
19/11:30pm 20.0 N 14 20 1013.8 - 0.0 - - - - - - -
19/11:00pm 20.0 N 13 17 1014.4 - 0.0 - - - - - - -
19/10:30pm 19.9 N 12 17 1014.9 - 0.0 - - - - - - -
19/10:00pm 20.2 N 11 16 1015.2 - 0.0 - - - - - - -
19/09:30pm 20.2 N 10 14 1015.4 - 0.0 - - - - - - -
19/09:00pm 19.1 NNE 8 10 1015.6 - 0.0 - - - - - - -
19/08:30pm 18.8 NNE 7 9 1015.8 - 0.0 - - - - - - -
19/08:00pm 19.4 NNE 7 8 1015.8 - 0.0 - - - - - - -
19/07:30pm 20.7 NNE 6 7 1015.8 - 0.0 - - - - - - -
19/07:00pm 22.8 N 6 8 1015.7 - 0.0 - - - - - - -
19/06:30pm 24.9 N 7 11 1015.7 - 0.0 - - - - - - -
19/06:00pm 26.3 N 10 15 1015.8 - 0.0 - - - - - - -
19/05:30pm 27.0 N 11 17 1016.0 - 0.0 - - - - - - -
19/05:00pm 27.4 N 10 18 1016.1 - 0.0 - - - - - - -
19/04:30pm 26.7 N 12 18 1016.4 - 0.0 Fine Mostly cloudy 40 - - - -
19/04:00pm 27.0 N 13 19 1016.6 - 0.0 - - - - - - -
19/03:30pm 26.2 N 12 17 1017.3 - 0.0 - - - - - - -
19/03:00pm 26.4 N 14 19 1017.8 - 0.0 - - - - - - -
19/02:30pm 25.7 N 12 18 1018.3 - 0.0 - - - - - - -
19/02:00pm 25.2 N 13 18 1019.0 - 0.0 - - - - - - -
19/01:30pm 24.4 N 11 18 1019.9 - 0.0 - - - - - - -
19/01:00pm 23.2 N 13 19 1020.7 - 0.0 - - - - - - -
19/12:30pm 21.8 N 11 18 1021.4 - 0.0 - - - - - - -
19/12:00pm 20.9 N 11 18 1021.9 - 0.0 - - - - - - -
19/11:30am 19.6 N 13 20 1022.3 - 0.0 - - - - - - -
19/11:00am 18.2 N 14 21 1022.6 - 0.0 - - - - - - -
19/10:30am 16.6 N 13 19 1023.1 - 0.0 Fine Clear 40 - - - -
19/10:00am 14.8 NNE 13 20 1023.4 - 0.0 - - - - - - -
19/09:30am 13.6 N 12 19 1024.1 - 0.0 - - - - - - -
19/09:00am 11.4 N 14 19 1024.2 - 0.0 - - - - - - -
19/08:30am 9.7 N 13 17 1024.3 - 0.0 - - - - - - -
19/08:00am 7.8 N 12 17 1024.3 - 0.0 - - - - - - -
19/07:30am 5.9 N 10 14 1024.2 - 0.0 - - - - - - -
19/07:00am 4.8 N 10 14 1024.2 - 0.0 - - - - - - -
19/06:30am 5.2 NNE 9 13 1024.1 - 0.0 - - - - - - -
19/06:00am 5.0 NNE 9 12 1024.0 - 0.0 - - - - - - -
19/05:30am 5.4 N 8 10 1024.0 - 0.0 - - - - - - -
19/05:00am 5.5 NNE 8 11 1023.8 - 0.0 - - - - - - -
19/04:30am 5.7 NNE 8 10 1024.1 - 0.0 - - - - - - -
19/04:00am 5.8 NNE 7 9 1024.3 - 0.0 - - - - - - -
19/03:30am 4.8 NNE 7 8 1024.4 - 0.0 - - - - - - -
19/03:00am 4.3 N 6 6 1025.0 - 0.0 - - - - - - -
19/02:30am 5.4 NNE 5 6 1025.2 - 0.0 - - - - - - -
19/02:00am 6.2 NE 7 8 1024.9 - 0.0 - - - - - - -
19/01:30am 6.3 NE 7 8 1025.3 - 0.0 - - - - - - -
19/01:00am 5.6 NE 6 6 1025.9 - 0.0 - - - - - - -
19/12:30am 5.3 NE 6 7 1025.9 - 0.0 - - - - - - -
19/12:00am 5.3 NNE 5 6 1026.4 - 0.0 - - - - - - -
 
Date/Time
CST
Temp
°C
Wind Pressure Rain since
9am
mm
Weather Cloud Vis
km
Sea
Height
m
Swell
Dir  Spd
kts
Gust
kts
hPa Trend Height
m
Period
s
Dir
18/11:30pm 5.5 NE 5 5 1026.5 - 0.0 - - - - - - -
18/11:00pm 6.7 ENE 5 6 1026.9 - 0.0 - - - - - - -
18/10:30pm 8.2 ESE 5 6 1027.3 - 0.0 - - - - - - -
18/10:00pm 8.7 ESE 5 7 1027.1 - 0.0 - - - - - - -
18/09:30pm 8.6 ESE 5 6 1027.2 - 0.0 - - - - - - -
18/09:00pm 7.9 ESE 5 5 1027.0 - 0.0 - - - - - - -
18/08:30pm 7.6 SE 4 6 1026.7 - 0.0 - - - - - - -
18/08:00pm 8.2 SE 4 5 1026.3 - 0.0 - - - - - - -
18/07:30pm 9.5 SSE 2 4 1026.2 - 0.0 - - - - - - -
18/07:00pm 11.2 S 4 6 1026.1 - 0.0 - - - - - - -
18/06:30pm 12.6 SSE 6 8 1025.6 - 0.0 - - - - - - -
18/06:00pm 13.3 S 7 10 1025.3 - 0.0 - - - - - - -
18/05:30pm 14.2 S 8 13 1025.0 - 0.0 - - - - - - -
18/05:00pm 14.6 S 8 13 1024.9 - 0.0 - - - - - - -
18/04:30pm 15.7 S 9 13 1024.6 - 0.0 Haze Mostly clear 20 - - - -
18/04:00pm 15.5 S 9 15 1024.6 - 0.0 - - - - - - -
18/03:30pm 16.0 S 10 15 1024.7 - 0.0 - - - - - - -
18/03:00pm 15.8 S 11 18 1024.9 - 0.0 - - - - - - -
18/02:30pm 16.3 S 11 17 1024.7 - 0.0 - - - - - - -
18/02:00pm 16.7 S 10 18 1024.5 - 0.0 - - - - - - -
18/01:30pm 16.3 S 11 17 1024.5 - 0.0 - - - - - - -
18/01:00pm 16.7 S 12 19 1024.4 - 0.0 - - - - - - -
18/12:30pm 16.6 S 13 20 1024.6 - 0.0 - - - - - - -
18/12:00pm 16.6 S 14 21 1024.7 - 0.0 - - - - - - -
18/11:30am 16.7 SSW 14 21 1024.5 - 0.0 - - - - - - -
18/11:00am 16.2 SSW 15 22 1024.3 - 0.0 - - - - - - -
18/10:30am 15.9 SSW 13 19 1024.1 - 0.0 Haze Partly cloudy 20 - - - -
18/10:00am 16.1 SSW 13 20 1023.8 - 0.0 - - - - - - -
18/09:30am 15.5 SSW 12 20 1023.4 - 0.0 - - - - - - -
18/09:00am 14.7 SSW 12 17 1022.9 - 0.0 - - - - - - -
18/08:30am 14.5 SSW 11 21 1022.4 - 0.0 - - - - - - -
18/08:00am 13.9 SW 11 19 1021.9 - 0.0 - - - - - - -
18/07:30am 14.1 WSW 10 15 1021.1 - 0.0 - - - - - - -
18/07:00am 13.6 WSW 9 15 1020.6 - 0.0 - - - - - - -
18/06:30am 13.5 W 8 12 1020.1 - 0.0 - - - - - - -
18/06:00am 13.3 W 8 12 1019.7 - 0.0 - - - - - - -
18/05:30am 13.6 WSW 8 14 1019.3 - 0.0 - - - - - - -

Other Formats:

Comma delimited format used in spreadsheet applications
http://www.bom.gov.au/fwo/IDS60701/IDS60701.94647.axf

JavaScript Object Notation format (JSON) in row-major order
http://www.bom.gov.au/fwo/IDS60701/IDS60701.94647.json